sensor_id;sensor_type;location;lat;lon;timestamp;pressure;altitude;pressure_sealevel;temperature;humidity
45541;BME280;31265;49.680;8.608;2024-03-25T00:02:26;99802.84;;;6.21;100.00
45541;BME280;31265;49.680;8.608;2024-03-25T00:04:53;99799.91;;;6.19;100.00
45541;BME280;31265;49.680;8.608;2024-03-25T00:07:20;99807.44;;;6.18;100.00
45541;BME280;31265;49.680;8.608;2024-03-25T00:09:48;99805.97;;;6.25;100.00
45541;BME280;31265;49.680;8.608;2024-03-25T00:12:17;99798.63;;;6.20;100.00
45541;BME280;31265;49.680;8.608;2024-03-25T00:14:44;99800.44;;;6.17;100.00
45541;BME280;31265;49.680;8.608;2024-03-25T00:17:13;99801.16;;;6.18;100.00
45541;BME280;31265;49.680;8.608;2024-03-25T00:19:40;99799.84;;;6.03;100.00
45541;BME280;31265;49.680;8.608;2024-03-25T00:22:08;99806.56;;;5.95;100.00
45541;BME280;31265;49.680;8.608;2024-03-25T00:24:35;99802.81;;;5.85;100.00
45541;BME280;31265;49.680;8.608;2024-03-25T00:27:03;99812.69;;;5.80;100.00
45541;BME280;31265;49.680;8.608;2024-03-25T00:29:31;99811.03;;;5.77;100.00
45541;BME280;31265;49.680;8.608;2024-03-25T00:31:59;99806.78;;;5.76;100.00
45541;BME280;31265;49.680;8.608;2024-03-25T00:34:26;99812.69;;;5.80;100.00
45541;BME280;31265;49.680;8.608;2024-03-25T00:36:53;99818.22;;;5.80;100.00
45541;BME280;31265;49.680;8.608;2024-03-25T00:39:20;99817.69;;;5.81;100.00
45541;BME280;31265;49.680;8.608;2024-03-25T00:41:48;99822.25;;;5.79;100.00
45541;BME280;31265;49.680;8.608;2024-03-25T00:44:16;99831.09;;;5.85;100.00
45541;BME280;31265;49.680;8.608;2024-03-25T00:46:45;99816.91;;;5.81;100.00
45541;BME280;31265;49.680;8.608;2024-03-25T00:49:12;99822.97;;;5.79;100.00
45541;BME280;31265;49.680;8.608;2024-03-25T00:51:40;99826.66;;;5.82;100.00
45541;BME280;31265;49.680;8.608;2024-03-25T00:54:08;99823.50;;;5.78;100.00
45541;BME280;31265;49.680;8.608;2024-03-25T00:56:35;99824.75;;;5.69;100.00
45541;BME280;31265;49.680;8.608;2024-03-25T00:59:02;99822.13;;;5.64;100.00
45541;BME280;31265;49.680;8.608;2024-03-25T01:01:32;99823.22;;;5.60;100.00
45541;BME280;31265;49.680;8.608;2024-03-25T01:04:00;99822.13;;;5.64;100.00
45541;BME280;31265;49.680;8.608;2024-03-25T01:06:28;99820.13;;;5.64;100.00
45541;BME280;31265;49.680;8.608;2024-03-25T01:08:56;99817.03;;;5.68;100.00
45541;BME280;31265;49.680;8.608;2024-03-25T01:11:23;99809.91;;;5.72;100.00
45541;BME280;31265;49.680;8.608;2024-03-25T01:13:50;99814.88;;;5.74;100.00
45541;BME280;31265;49.680;8.608;2024-03-25T01:16:18;99810.31;;;5.76;100.00
45541;BME280;31265;49.680;8.608;2024-03-25T01:18:44;99811.97;;;5.79;100.00
45541;BME280;31265;49.680;8.608;2024-03-25T01:21:13;99807.63;;;5.92;100.00
45541;BME280;31265;49.680;8.608;2024-03-25T01:23:41;99803.59;;;5.93;100.00
45541;BME280;31265;49.680;8.608;2024-03-25T01:26:08;99813.47;;;5.88;100.00
45541;BME280;31265;49.680;8.608;2024-03-25T01:28:35;99811.41;;;5.81;100.00
45541;BME280;31265;49.680;8.608;2024-03-25T01:31:03;99812.66;;;5.72;100.00
45541;BME280;31265;49.680;8.608;2024-03-25T01:33:30;99813.34;;;5.65;100.00
45541;BME280;31265;49.680;8.608;2024-03-25T01:35:57;99807.19;;;5.51;100.00
45541;BME280;31265;49.680;8.608;2024-03-25T01:38:25;99802.16;;;5.42;100.00
45541;BME280;31265;49.680;8.608;2024-03-25T01:40:53;99807.25;;;5.38;100.00
45541;BME280;31265;49.680;8.608;2024-03-25T01:43:19;99808.34;;;5.35;100.00
45541;BME280;31265;49.680;8.608;2024-03-25T01:45:47;99817.13;;;5.33;100.00
45541;BME280;31265;49.680;8.608;2024-03-25T01:48:15;99811.97;;;5.30;100.00
45541;BME280;31265;49.680;8.608;2024-03-25T01:50:44;99818.22;;;5.30;100.00
45541;BME280;31265;49.680;8.608;2024-03-25T01:53:12;99815.47;;;5.30;100.00
45541;BME280;31265;49.680;8.608;2024-03-25T01:55:42;99814.00;;;5.29;100.00
45541;BME280;31265;49.680;8.608;2024-03-25T01:58:09;99809.16;;;5.22;100.00
45541;BME280;31265;49.680;8.608;2024-03-25T02:00:37;99817.94;;;5.21;100.00
45541;BME280;31265;49.680;8.608;2024-03-25T02:03:05;99819.22;;;5.20;100.00
45541;BME280;31265;49.680;8.608;2024-03-25T02:05:34;99816.66;;;5.22;100.00
45541;BME280;31265;49.680;8.608;2024-03-25T02:08:01;99820.38;;;5.24;100.00
45541;BME280;31265;49.680;8.608;2024-03-25T02:10:29;99820.03;;;5.28;100.00
45541;BME280;31265;49.680;8.608;2024-03-25T02:12:58;99812.84;;;5.25;100.00
45541;BME280;31265;49.680;8.608;2024-03-25T02:15:25;99807.47;;;5.19;100.00
45541;BME280;31265;49.680;8.608;2024-03-25T02:17:54;99809.94;;;5.09;100.00
45541;BME280;31265;49.680;8.608;2024-03-25T02:20:22;99808.06;;;5.04;100.00
45541;BME280;31265;49.680;8.608;2024-03-25T02:22:48;99813.50;;;4.96;100.00
45541;BME280;31265;49.680;8.608;2024-03-25T02:25:16;99808.34;;;4.93;100.00
45541;BME280;31265;49.680;8.608;2024-03-25T02:27:44;99817.78;;;4.84;100.00
45541;BME280;31265;49.680;8.608;2024-03-25T02:30:13;99811.88;;;4.80;100.00
45541;BME280;31265;49.680;8.608;2024-03-25T02:32:40;99811.91;;;4.67;100.00
45541;BME280;31265;49.680;8.608;2024-03-25T02:35:11;99812.03;;;4.61;100.00
45541;BME280;31265;49.680;8.608;2024-03-25T02:37:38;99817.53;;;4.61;100.00
45541;BME280;31265;49.680;8.608;2024-03-25T02:40:08;99820.50;;;4.63;100.00
45541;BME280;31265;49.680;8.608;2024-03-25T02:42:36;99817.13;;;4.57;100.00
45541;BME280;31265;49.680;8.608;2024-03-25T02:45:08;99812.19;;;4.56;100.00
45541;BME280;31265;49.680;8.608;2024-03-25T02:47:34;99803.94;;;4.56;100.00
45541;BME280;31265;49.680;8.608;2024-03-25T02:50:02;99801.72;;;4.54;100.00
45541;BME280;31265;49.680;8.608;2024-03-25T02:52:30;99791.16;;;4.45;100.00
45541;BME280;31265;49.680;8.608;2024-03-25T02:54:58;99797.84;;;4.36;100.00
45541;BME280;31265;49.680;8.608;2024-03-25T02:57:24;99794.16;;;4.20;100.00
45541;BME280;31265;49.680;8.608;2024-03-25T02:59:54;99800.75;;;4.04;100.00
45541;BME280;31265;49.680;8.608;2024-03-25T03:02:22;99797.69;;;3.94;100.00
45541;BME280;31265;49.680;8.608;2024-03-25T03:04:49;99806.13;;;3.83;100.00
45541;BME280;31265;49.680;8.608;2024-03-25T03:07:16;99804.13;;;3.83;100.00
45541;BME280;31265;49.680;8.608;2024-03-25T03:09:44;99807.72;;;3.92;100.00
45541;BME280;31265;49.680;8.608;2024-03-25T03:12:11;99802.66;;;3.96;100.00
45541;BME280;31265;49.680;8.608;2024-03-25T03:14:38;99805.50;;;4.03;100.00
45541;BME280;31265;49.680;8.608;2024-03-25T03:17:04;99809.19;;;4.06;100.00
45541;BME280;31265;49.680;8.608;2024-03-25T03:19:33;99803.16;;;4.07;100.00
45541;BME280;31265;49.680;8.608;2024-03-25T03:22:02;99797.78;;;4.02;100.00
45541;BME280;31265;49.680;8.608;2024-03-25T03:24:29;99799.47;;;3.92;100.00
45541;BME280;31265;49.680;8.608;2024-03-25T03:26:56;99801.69;;;3.80;100.00
45541;BME280;31265;49.680;8.608;2024-03-25T03:29:25;99801.91;;;3.69;100.00
45541;BME280;31265;49.680;8.608;2024-03-25T03:31:51;99808.09;;;3.56;100.00
45541;BME280;31265;49.680;8.608;2024-03-25T03:34:18;99801.78;;;3.48;100.00
45541;BME280;31265;49.680;8.608;2024-03-25T03:36:47;99800.31;;;3.47;100.00
45541;BME280;31265;49.680;8.608;2024-03-25T03:39:15;99796.16;;;3.40;100.00
45541;BME280;31265;49.680;8.608;2024-03-25T03:41:41;99804.28;;;3.32;100.00
45541;BME280;31265;49.680;8.608;2024-03-25T03:44:10;99803.63;;;3.26;100.00
45541;BME280;31265;49.680;8.608;2024-03-25T03:46:38;99802.75;;;3.18;100.00
45541;BME280;31265;49.680;8.608;2024-03-25T03:49:06;99808.56;;;3.14;100.00
45541;BME280;31265;49.680;8.608;2024-03-25T03:51:32;99806.22;;;3.05;100.00
45541;BME280;31265;49.680;8.608;2024-03-25T03:54:01;99810.38;;;2.93;100.00
45541;BME280;31265;49.680;8.608;2024-03-25T03:56:27;99812.44;;;2.87;100.00
45541;BME280;31265;49.680;8.608;2024-03-25T03:58:55;99807.72;;;2.87;100.00
45541;BME280;31265;49.680;8.608;2024-03-25T04:01:21;99819.81;;;2.78;100.00
45541;BME280;31265;49.680;8.608;2024-03-25T04:03:49;99813.69;;;2.72;100.00
45541;BME280;31265;49.680;8.608;2024-03-25T04:06:16;99808.06;;;2.65;100.00
45541;BME280;31265;49.680;8.608;2024-03-25T04:08:43;99817.06;;;2.59;100.00
45541;BME280;31265;49.680;8.608;2024-03-25T04:11:11;99807.97;;;2.51;100.00
45541;BME280;31265;49.680;8.608;2024-03-25T04:13:39;99808.78;;;2.46;100.00
45541;BME280;31265;49.680;8.608;2024-03-25T04:16:06;99811.16;;;2.36;100.00
45541;BME280;31265;49.680;8.608;2024-03-25T04:18:34;99818.25;;;2.26;100.00
45541;BME280;31265;49.680;8.608;2024-03-25T04:21:00;99824.03;;;2.23;100.00
45541;BME280;31265;49.680;8.608;2024-03-25T04:23:28;99823.81;;;2.21;100.00
45541;BME280;31265;49.680;8.608;2024-03-25T04:25:54;99823.28;;;2.22;100.00
45541;BME280;31265;49.680;8.608;2024-03-25T04:28:23;99816.91;;;2.14;100.00
45541;BME280;31265;49.680;8.608;2024-03-25T04:30:51;99815.47;;;2.07;100.00
45541;BME280;31265;49.680;8.608;2024-03-25T04:33:19;99822.50;;;2.03;100.00
45541;BME280;31265;49.680;8.608;2024-03-25T04:35:46;99814.13;;;1.95;100.00
45541;BME280;31265;49.680;8.608;2024-03-25T04:38:15;99815.44;;;1.88;100.00
45541;BME280;31265;49.680;8.608;2024-03-25T04:40:43;99819.97;;;1.86;100.00
45541;BME280;31265;49.680;8.608;2024-03-25T04:43:10;99815.50;;;1.83;100.00
45541;BME280;31265;49.680;8.608;2024-03-25T04:45:39;99818.81;;;1.76;100.00
45541;BME280;31265;49.680;8.608;2024-03-25T04:48:07;99812.16;;;1.71;100.00
45541;BME280;31265;49.680;8.608;2024-03-25T04:50:35;99824.84;;;1.68;100.00
45541;BME280;31265;49.680;8.608;2024-03-25T04:53:02;99819.66;;;1.65;100.00
45541;BME280;31265;49.680;8.608;2024-03-25T04:55:29;99827.88;;;1.65;100.00
45541;BME280;31265;49.680;8.608;2024-03-25T04:57:55;99822.47;;;1.59;100.00
45541;BME280;31265;49.680;8.608;2024-03-25T05:00:22;99822.22;;;1.57;100.00
45541;BME280;31265;49.680;8.608;2024-03-25T05:02:50;99824.47;;;1.53;100.00
45541;BME280;31265;49.680;8.608;2024-03-25T05:05:16;99824.47;;;1.53;100.00
45541;BME280;31265;49.680;8.608;2024-03-25T05:07:43;99836.00;;;1.46;100.00
45541;BME280;31265;49.680;8.608;2024-03-25T05:10:09;99834.00;;;1.46;100.00
45541;BME280;31265;49.680;8.608;2024-03-25T05:12:38;99833.72;;;1.50;100.00
45541;BME280;31265;49.680;8.608;2024-03-25T05:15:06;99830.06;;;1.42;100.00
45541;BME280;31265;49.680;8.608;2024-03-25T05:17:32;99843.50;;;1.40;100.00
45541;BME280;31265;49.680;8.608;2024-03-25T05:20:00;99842.03;;;1.39;100.00
45541;BME280;31265;49.680;8.608;2024-03-25T05:22:27;99843.97;;;1.44;100.00
45541;BME280;31265;49.680;8.608;2024-03-25T05:24:54;99851.38;;;1.49;100.00
45541;BME280;31265;49.680;8.608;2024-03-25T05:27:22;99856.84;;;1.49;100.00
45541;BME280;31265;49.680;8.608;2024-03-25T05:29:49;99854.81;;;1.55;100.00
45541;BME280;31265;49.680;8.608;2024-03-25T05:32:16;99852.81;;;1.56;100.00
45541;BME280;31265;49.680;8.608;2024-03-25T05:34:43;99850.28;;;1.63;100.00
45541;BME280;31265;49.680;8.608;2024-03-25T05:37:11;99853.00;;;1.63;100.00
45541;BME280;31265;49.680;8.608;2024-03-25T05:39:37;99858.28;;;1.80;100.00
45541;BME280;31265;49.680;8.608;2024-03-25T05:42:06;99859.50;;;1.85;100.00
45541;BME280;31265;49.680;8.608;2024-03-25T05:44:32;99865.16;;;1.92;100.00
45541;BME280;31265;49.680;8.608;2024-03-25T05:46:59;99863.66;;;1.91;100.00
45541;BME280;31265;49.680;8.608;2024-03-25T05:49:25;99865.22;;;1.87;100.00
45541;BME280;31265;49.680;8.608;2024-03-25T05:51:52;99870.19;;;1.88;100.00
45541;BME280;31265;49.680;8.608;2024-03-25T05:54:20;99865.91;;;1.93;100.00
45541;BME280;31265;49.680;8.608;2024-03-25T05:56:47;99868.84;;;1.95;100.00
45541;BME280;31265;49.680;8.608;2024-03-25T05:59:13;99873.09;;;1.96;100.00
45541;BME280;31265;49.680;8.608;2024-03-25T06:01:40;99868.28;;;2.02;100.00
45541;BME280;31265;49.680;8.608;2024-03-25T06:04:06;99868.75;;;2.06;100.00
45541;BME280;31265;49.680;8.608;2024-03-25T06:06:35;99871.72;;;2.08;100.00
45541;BME280;31265;49.680;8.608;2024-03-25T06:09:02;99879.63;;;2.12;100.00
45541;BME280;31265;49.680;8.608;2024-03-25T06:11:30;99875.59;;;2.19;100.00
45541;BME280;31265;49.680;8.608;2024-03-25T06:13:57;99875.00;;;2.26;100.00
45541;BME280;31265;49.680;8.608;2024-03-25T06:16:23;99881.59;;;2.36;100.00
45541;BME280;31265;49.680;8.608;2024-03-25T06:18:52;99879.34;;;2.40;100.00
45541;BME280;31265;49.680;8.608;2024-03-25T06:21:19;99879.41;;;2.53;100.00
45541;BME280;31265;49.680;8.608;2024-03-25T06:23:45;99884.09;;;2.77;100.00
45541;BME280;31265;49.680;8.608;2024-03-25T06:26:11;99877.75;;;3.01;100.00
45541;BME280;31265;49.680;8.608;2024-03-25T06:28:40;99884.03;;;3.34;100.00
45541;BME280;31265;49.680;8.608;2024-03-25T06:31:09;99879.88;;;3.60;100.00
45541;BME280;31265;49.680;8.608;2024-03-25T06:33:55;99881.28;;;3.80;100.00
45541;BME280;31265;49.680;8.608;2024-03-25T06:36:41;99881.63;;;4.03;100.00
45541;BME280;31265;49.680;8.608;2024-03-25T06:39:10;99877.53;;;4.23;100.00
45541;BME280;31265;49.680;8.608;2024-03-25T06:41:37;99890.91;;;4.53;100.00
45541;BME280;31265;49.680;8.608;2024-03-25T06:44:05;99891.09;;;4.68;100.00
45541;BME280;31265;49.680;8.608;2024-03-25T06:46:32;99884.25;;;4.96;100.00
45541;BME280;31265;49.680;8.608;2024-03-25T06:48:59;99889.81;;;5.17;100.00
45541;BME280;31265;49.680;8.608;2024-03-25T06:51:25;99892.09;;;5.47;100.00
45541;BME280;31265;49.680;8.608;2024-03-25T06:53:54;99880.75;;;5.72;100.00
45541;BME280;31265;49.680;8.608;2024-03-25T06:56:20;99888.66;;;5.96;100.00
45541;BME280;31265;49.680;8.608;2024-03-25T06:58:46;99890.13;;;6.26;100.00
45541;BME280;31265;49.680;8.608;2024-03-25T07:01:16;99893.56;;;6.19;100.00
45541;BME280;31265;49.680;8.608;2024-03-25T07:03:42;99892.25;;;6.12;100.00
45541;BME280;31265;49.680;8.608;2024-03-25T07:06:09;99893.28;;;6.38;100.00
45541;BME280;31265;49.680;8.608;2024-03-25T07:08:35;99893.63;;;6.63;100.00
45541;BME280;31265;49.680;8.608;2024-03-25T07:11:02;99897.91;;;6.87;100.00
45541;BME280;31265;49.680;8.608;2024-03-25T07:13:31;99897.00;;;6.84;100.00
45541;BME280;31265;49.680;8.608;2024-03-25T07:16:04;99891.88;;;6.88;100.00
45541;BME280;31265;49.680;8.608;2024-03-25T07:18:33;99902.06;;;7.24;100.00
45541;BME280;31265;49.680;8.608;2024-03-25T07:20:59;99895.63;;;7.22;100.00
45541;BME280;31265;49.680;8.608;2024-03-25T07:23:26;99899.06;;;7.07;100.00
45541;BME280;31265;49.680;8.608;2024-03-25T07:25:52;99899.50;;;7.42;100.00
45541;BME280;31265;49.680;8.608;2024-03-25T07:28:19;99898.44;;;7.45;100.00
45541;BME280;31265;49.680;8.608;2024-03-25T07:30:45;99890.31;;;7.85;100.00
45541;BME280;31265;49.680;8.608;2024-03-25T07:33:12;99893.63;;;8.07;100.00
45541;BME280;31265;49.680;8.608;2024-03-25T07:35:44;99888.81;;;8.07;100.00
45541;BME280;31265;49.680;8.608;2024-03-25T07:38:11;99896.19;;;8.12;100.00
45541;BME280;31265;49.680;8.608;2024-03-25T07:40:40;99894.47;;;8.32;100.00
45541;BME280;31265;49.680;8.608;2024-03-25T07:43:07;99896.31;;;8.37;100.00
45541;BME280;31265;49.680;8.608;2024-03-25T07:45:33;99885.41;;;8.55;100.00
45541;BME280;31265;49.680;8.608;2024-03-25T07:48:00;99888.19;;;8.47;100.00
45541;BME280;31265;49.680;8.608;2024-03-25T07:50:26;99876.50;;;8.72;100.00
45541;BME280;31265;49.680;8.608;2024-03-25T07:52:56;99875.09;;;8.96;100.00
45541;BME280;31265;49.680;8.608;2024-03-25T07:55:22;99874.44;;;9.13;100.00
45541;BME280;31265;49.680;8.608;2024-03-25T07:57:49;99876.53;;;8.97;100.00
45541;BME280;31265;49.680;8.608;2024-03-25T08:00:16;99874.69;;;8.99;100.00
45541;BME280;31265;49.680;8.608;2024-03-25T08:02:42;99887.91;;;9.09;100.00
45541;BME280;31265;49.680;8.608;2024-03-25T08:05:09;99880.75;;;9.06;100.00
45541;BME280;31265;49.680;8.608;2024-03-25T08:07:36;99891.00;;;9.20;100.00
45541;BME280;31265;49.680;8.608;2024-03-25T08:10:05;99879.63;;;9.09;100.00
45541;BME280;31265;49.680;8.608;2024-03-25T08:12:32;99884.88;;;9.22;100.00
45541;BME280;31265;49.680;8.608;2024-03-25T08:14:58;99879.75;;;9.18;100.00
45541;BME280;31265;49.680;8.608;2024-03-25T08:17:25;99870.38;;;9.39;100.00
45541;BME280;31265;49.680;8.608;2024-03-25T08:19:53;99875.00;;;9.36;100.00
45541;BME280;31265;49.680;8.608;2024-03-25T08:22:19;99872.47;;;9.31;100.00
45541;BME280;31265;49.680;8.608;2024-03-25T08:24:46;99874.28;;;9.36;100.00
45541;BME280;31265;49.680;8.608;2024-03-25T08:27:14;99872.28;;;9.29;100.00
45541;BME280;31265;49.680;8.608;2024-03-25T08:29:41;99867.16;;;9.25;100.00
45541;BME280;31265;49.680;8.608;2024-03-25T08:32:08;99866.81;;;9.21;100.00
45541;BME280;31265;49.680;8.608;2024-03-25T08:34:34;99875.47;;;9.50;100.00
45541;BME280;31265;49.680;8.608;2024-03-25T08:37:03;99862.66;;;9.37;100.00
45541;BME280;31265;49.680;8.608;2024-03-25T08:39:31;99855.31;;;9.32;100.00
45541;BME280;31265;49.680;8.608;2024-03-25T08:41:59;99864.72;;;9.79;100.00
45541;BME280;31265;49.680;8.608;2024-03-25T08:44:28;99859.91;;;9.80;100.00
45541;BME280;31265;49.680;8.608;2024-03-25T08:46:55;99863.66;;;9.50;100.00
45541;BME280;31265;49.680;8.608;2024-03-25T08:49:21;99867.19;;;9.67;100.00
45541;BME280;31265;49.680;8.608;2024-03-25T08:51:48;99853.19;;;9.65;100.00
45541;BME280;31265;49.680;8.608;2024-03-25T08:54:15;99855.31;;;9.75;100.00
45541;BME280;31265;49.680;8.608;2024-03-25T08:56:47;99854.97;;;9.71;100.00
45541;BME280;31265;49.680;8.608;2024-03-25T08:59:15;99857.72;;;10.30;100.00
45541;BME280;31265;49.680;8.608;2024-03-25T09:01:43;99854.94;;;10.48;100.00
45541;BME280;31265;49.680;8.608;2024-03-25T09:04:10;99858.69;;;10.60;100.00
45541;BME280;31265;49.680;8.608;2024-03-25T09:06:36;99852.25;;;10.85;100.00
45541;BME280;31265;49.680;8.608;2024-03-25T09:09:03;99842.47;;;10.84;100.00
45541;BME280;31265;49.680;8.608;2024-03-25T09:11:48;99853.03;;;10.68;100.00
45541;BME280;31265;49.680;8.608;2024-03-25T09:14:15;99852.16;;;10.92;100.00
45541;BME280;31265;49.680;8.608;2024-03-25T09:16:43;99852.00;;;10.90;100.00
45541;BME280;31265;49.680;8.608;2024-03-25T09:19:10;99857.06;;;10.57;100.00
45541;BME280;31265;49.680;8.608;2024-03-25T09:21:37;99847.06;;;10.44;100.00
45541;BME280;31265;49.680;8.608;2024-03-25T09:24:04;99839.09;;;10.58;100.00
45541;BME280;31265;49.680;8.608;2024-03-25T09:26:31;99840.53;;;10.76;100.00
45541;BME280;31265;49.680;8.608;2024-03-25T09:28:58;99832.38;;;10.79;100.00
45541;BME280;31265;49.680;8.608;2024-03-25T09:31:25;99829.66;;;11.25;100.00
45541;BME280;31265;49.680;8.608;2024-03-25T09:33:54;99827.06;;;11.37;88.21
45541;BME280;31265;49.680;8.608;2024-03-25T09:36:20;99822.19;;;11.18;86.86
45541;BME280;31265;49.680;8.608;2024-03-25T09:38:48;99823.91;;;11.50;81.62
45541;BME280;31265;49.680;8.608;2024-03-25T09:41:15;99817.31;;;11.55;78.99
45541;BME280;31265;49.680;8.608;2024-03-25T09:43:43;99806.56;;;11.89;74.86
45541;BME280;31265;49.680;8.608;2024-03-25T09:46:10;99810.03;;;11.60;73.73
45541;BME280;31265;49.680;8.608;2024-03-25T09:48:37;99803.03;;;11.78;75.69
45541;BME280;31265;49.680;8.608;2024-03-25T09:51:05;99795.16;;;12.04;79.50
45541;BME280;31265;49.680;8.608;2024-03-25T09:53:32;99798.22;;;12.08;91.06
45541;BME280;31265;49.680;8.608;2024-03-25T09:55:59;99792.22;;;12.21;80.66
45541;BME280;31265;49.680;8.608;2024-03-25T09:58:27;99788.13;;;12.03;73.69
45541;BME280;31265;49.680;8.608;2024-03-25T10:00:54;99787.59;;;12.65;67.30
45541;BME280;31265;49.680;8.608;2024-03-25T10:03:21;99771.16;;;12.79;66.65
45541;BME280;31265;49.680;8.608;2024-03-25T10:05:48;99775.16;;;13.07;64.88
45541;BME280;31265;49.680;8.608;2024-03-25T10:08:20;99769.53;;;12.76;67.70
45541;BME280;31265;49.680;8.608;2024-03-25T10:10:46;99760.06;;;12.69;67.00
45541;BME280;31265;49.680;8.608;2024-03-25T10:13:13;99764.94;;;13.31;68.10
45541;BME280;31265;49.680;8.608;2024-03-25T10:15:39;99759.91;;;13.61;66.61
45541;BME280;31265;49.680;8.608;2024-03-25T10:18:06;99755.25;;;13.01;68.36
45541;BME280;31265;49.680;8.608;2024-03-25T10:20:33;99751.91;;;13.55;67.72
45541;BME280;31265;49.680;8.608;2024-03-25T10:22:59;99755.84;;;13.95;59.19
45541;BME280;31265;49.680;8.608;2024-03-25T10:25:28;99758.06;;;14.08;58.27
45541;BME280;31265;49.680;8.608;2024-03-25T10:27:55;99752.00;;;13.57;62.73
45541;BME280;31265;49.680;8.608;2024-03-25T10:30:23;99743.84;;;13.71;64.82
45541;BME280;31265;49.680;8.608;2024-03-25T10:32:59;99741.25;;;13.85;56.27
45541;BME280;31265;49.680;8.608;2024-03-25T10:35:26;99735.00;;;13.74;55.16
45541;BME280;31265;49.680;8.608;2024-03-25T10:37:55;99739.22;;;13.97;54.89
45541;BME280;31265;49.680;8.608;2024-03-25T10:40:28;99740.81;;;14.00;52.67
45541;BME280;31265;49.680;8.608;2024-03-25T10:43:01;99729.94;;;14.16;53.90
45541;BME280;31265;49.680;8.608;2024-03-25T10:45:33;99740.09;;;14.00;54.03
45541;BME280;31265;49.680;8.608;2024-03-25T10:48:03;99726.25;;;13.90;54.78
45541;BME280;31265;49.680;8.608;2024-03-25T10:50:30;99728.09;;;13.75;54.24
45541;BME280;31265;49.680;8.608;2024-03-25T10:52:59;99719.16;;;13.34;54.92
45541;BME280;31265;49.680;8.608;2024-03-25T10:55:28;99727.09;;;12.65;58.03
45541;BME280;31265;49.680;8.608;2024-03-25T10:57:55;99726.59;;;12.47;58.53
45541;BME280;31265;49.680;8.608;2024-03-25T11:00:22;99727.25;;;12.17;62.35
45541;BME280;31265;49.680;8.608;2024-03-25T11:02:50;99720.44;;;13.11;59.27
45541;BME280;31265;49.680;8.608;2024-03-25T11:05:17;99723.13;;;13.52;54.36
45541;BME280;31265;49.680;8.608;2024-03-25T11:07:44;99714.72;;;13.41;57.11
45541;BME280;31265;49.680;8.608;2024-03-25T11:10:11;99707.09;;;13.41;60.92
45541;BME280;31265;49.680;8.608;2024-03-25T11:12:41;99709.22;;;14.31;51.86
45541;BME280;31265;49.680;8.608;2024-03-25T11:15:10;99708.56;;;14.09;53.11
45541;BME280;31265;49.680;8.608;2024-03-25T11:17:37;99706.03;;;14.70;50.24
45541;BME280;31265;49.680;8.608;2024-03-25T11:20:08;99691.53;;;15.58;49.27
45541;BME280;31265;49.680;8.608;2024-03-25T11:22:36;99685.59;;;15.14;57.23
45541;BME280;31265;49.680;8.608;2024-03-25T11:25:06;99682.06;;;15.63;51.78
45541;BME280;31265;49.680;8.608;2024-03-25T11:27:36;99679.28;;;15.14;48.12
45541;BME280;31265;49.680;8.608;2024-03-25T11:30:05;99673.25;;;14.70;48.73
45541;BME280;31265;49.680;8.608;2024-03-25T11:32:43;99667.66;;;14.82;49.74
45541;BME280;31265;49.680;8.608;2024-03-25T11:35:11;99671.44;;;14.75;51.89
45541;BME280;31265;49.680;8.608;2024-03-25T11:37:41;99657.00;;;14.55;48.72
45541;BME280;31265;49.680;8.608;2024-03-25T11:40:08;99657.09;;;14.92;49.40
45541;BME280;31265;49.680;8.608;2024-03-25T11:42:35;99651.63;;;14.82;47.37
45541;BME280;31265;49.680;8.608;2024-03-25T11:45:06;99649.38;;;15.54;45.19
45541;BME280;31265;49.680;8.608;2024-03-25T11:47:33;99648.50;;;14.65;46.74
45541;BME280;31265;49.680;8.608;2024-03-25T11:50:00;99643.81;;;13.10;50.69
45541;BME280;31265;49.680;8.608;2024-03-25T11:52:30;99624.22;;;13.20;49.43
45541;BME280;31265;49.680;8.608;2024-03-25T11:54:56;99630.75;;;13.13;49.64
45541;BME280;31265;49.680;8.608;2024-03-25T11:57:24;99627.63;;;13.40;52.89
45541;BME280;31265;49.680;8.608;2024-03-25T11:59:54;99633.56;;;13.80;53.28
45541;BME280;31265;49.680;8.608;2024-03-25T12:02:23;99622.25;;;14.46;47.16
45541;BME280;31265;49.680;8.608;2024-03-25T12:04:50;99630.09;;;15.09;45.67
45541;BME280;31265;49.680;8.608;2024-03-25T12:07:17;99611.91;;;15.59;43.40
45541;BME280;31265;49.680;8.608;2024-03-25T12:09:44;99612.16;;;15.88;43.06
45541;BME280;31265;49.680;8.608;2024-03-25T12:12:32;99617.75;;;15.63;44.20
45541;BME280;31265;49.680;8.608;2024-03-25T12:14:59;99613.09;;;15.04;43.58
45541;BME280;31265;49.680;8.608;2024-03-25T12:17:30;99612.06;;;14.74;44.50
45541;BME280;31265;49.680;8.608;2024-03-25T12:20:03;99604.34;;;14.98;43.92
45541;BME280;31265;49.680;8.608;2024-03-25T12:22:32;99597.94;;;13.45;45.11
45541;BME280;31265;49.680;8.608;2024-03-25T12:24:59;99583.78;;;12.98;49.43
45541;BME280;31265;49.680;8.608;2024-03-25T12:27:30;99581.53;;;12.84;47.59
45541;BME280;31265;49.680;8.608;2024-03-25T12:29:58;99576.63;;;12.73;49.90
45541;BME280;31265;49.680;8.608;2024-03-25T12:32:36;99573.63;;;13.24;51.33
45541;BME280;31265;49.680;8.608;2024-03-25T12:35:03;99568.59;;;13.10;51.29
45541;BME280;31265;49.680;8.608;2024-03-25T12:37:31;99575.22;;;13.05;51.44
45541;BME280;31265;49.680;8.608;2024-03-25T12:39:57;99569.97;;;13.43;48.44
45541;BME280;31265;49.680;8.608;2024-03-25T12:42:25;99561.06;;;13.68;49.82
45541;BME280;31265;49.680;8.608;2024-03-25T12:44:52;99545.75;;;13.24;50.67
45541;BME280;31265;49.680;8.608;2024-03-25T12:47:24;99536.00;;;13.01;51.42
45541;BME280;31265;49.680;8.608;2024-03-25T12:49:53;99544.28;;;13.11;50.15
45541;BME280;31265;49.680;8.608;2024-03-25T12:52:19;99535.59;;;13.62;51.51
45541;BME280;31265;49.680;8.608;2024-03-25T12:54:45;99536.34;;;13.86;47.31
45541;BME280;31265;49.680;8.608;2024-03-25T12:57:12;99535.38;;;14.40;44.64
45541;BME280;31265;49.680;8.608;2024-03-25T12:59:39;99531.75;;;14.14;46.57
45541;BME280;31265;49.680;8.608;2024-03-25T13:02:09;99521.31;;;14.38;43.32
45541;BME280;31265;49.680;8.608;2024-03-25T13:04:37;99515.97;;;14.42;43.81